Time;durP1;ratioP1;P1;durP2;ratioP2;P2;SDS_P1;SDS_P2;PMS_P1;PMS_P2;Temp;Humidity;BMP_temperature;BMP_pressure;BME280_temperature;BME280_humidity;BME280_pressure;Samples;Min_cycle;Max_cycle;Signal;HPM_P1;HPM_P2
2023/07/26 00:02:18;;;;;;;0.52;0.52;;;;;;;21.21;60.33;98543.06;4313316;33;20151;-92
2023/07/26 00:04:44;;;;;;;0.52;0.52;;;;;;;21.10;60.33;98560.81;4296438;33;20122;-92
2023/07/26 00:07:09;;;;;;;0.00;0.00;;;;;;;21.23;60.32;98554.34;4296013;33;20120;-92
2023/07/26 00:09:35;;;;;;;0.30;0.30;;;;;;;21.25;60.32;98560.34;4317558;33;20163;-92
2023/07/26 00:12:00;;;;;;;0.10;0.10;;;;;;;21.07;60.32;98553.16;4324421;33;20155;-92
2023/07/26 00:14:25;;;;;;;0.10;0.10;;;;;;;21.01;60.31;98539.66;4319886;33;20178;-92
2023/07/26 00:16:51;;;;;;;0.00;0.00;;;;;;;21.31;60.32;98534.16;4295793;33;20123;-92
2023/07/26 00:19:19;;;;;;;0.05;0.05;;;;;;;21.32;60.33;98529.69;4295866;33;20138;-92
2023/07/26 00:21:47;;;;;;;0.88;0.82;;;;;;;21.44;60.34;98536.44;4296095;33;20183;-92
2023/07/26 00:24:12;;;;;;;0.10;0.10;;;;;;;21.34;60.33;98528.56;4296157;33;20113;-92
2023/07/26 00:26:38;;;;;;;0.00;0.00;;;;;;;21.34;60.34;98514.50;4286217;33;20410;-93
2023/07/26 00:29:04;;;;;;;0.00;0.00;;;;;;;21.41;60.33;98507.63;4305565;33;20271;-93
2023/07/26 00:31:29;;;;;;;0.00;0.00;;;;;;;21.12;60.32;98495.34;4293375;33;20138;-92
2023/07/26 00:33:54;;;;;;;5.25;1.10;;;;;;;21.07;60.32;98488.81;4295587;33;20153;-90
2023/07/26 00:36:20;;;;;;;0.00;0.00;;;;;;;21.03;60.32;98472.38;4307476;33;20079;-92
2023/07/26 00:38:45;;;;;;;0.00;0.00;;;;;;;20.92;60.31;98467.28;4295265;33;20180;-91
2023/07/26 00:41:11;;;;;;;0.00;0.00;;;;;;;20.96;60.31;98451.97;4295547;33;20150;-92
2023/07/26 00:43:36;;;;;;;0.22;0.22;;;;;;;20.99;60.31;98451.66;4295405;33;20110;-90
2023/07/26 00:46:02;;;;;;;0.55;0.37;;;;;;;20.90;60.31;98449.91;4295315;33;20413;-92
2023/07/26 00:48:27;;;;;;;0.00;0.00;;;;;;;20.79;60.31;98435.03;4295231;33;20793;-92
2023/07/26 00:50:53;;;;;;;0.25;0.20;;;;;;;20.93;60.31;98431.94;4285784;33;20100;-94
2023/07/26 00:53:19;;;;;;;0.35;0.22;;;;;;;20.90;60.31;98419.00;4321529;33;20108;-94
2023/07/26 00:55:44;;;;;;;1.65;0.15;;;;;;;20.73;60.30;98425.88;4307948;33;20435;-93
2023/07/26 00:58:11;;;;;;;0.00;0.00;;;;;;;20.68;60.30;98419.38;4308509;33;20447;-91
2023/07/26 01:00:40;;;;;;;0.57;0.57;;;;;;;20.52;60.29;98431.37;4309779;33;20146;-92
2023/07/26 01:03:06;;;;;;;0.00;0.00;;;;;;;20.69;60.30;98423.69;4310097;33;20159;-91
2023/07/26 01:05:34;;;;;;;0.20;0.20;;;;;;;20.70;60.29;98420.06;4309547;33;20539;-92
2023/07/26 01:08:06;;;;;;;0.10;0.10;;;;;;;20.67;60.30;98412.41;4309709;33;20518;-94
2023/07/26 01:10:54;;;;;;;0.03;0.03;;;;;;;20.68;60.30;98417.56;4322547;33;20127;-94
2023/07/26 01:13:26;;;;;;;0.00;0.00;;;;;;;20.71;60.30;98405.84;4298719;33;20126;-94
2023/07/26 01:15:52;;;;;;;0.00;0.00;;;;;;;20.69;60.30;98399.87;4310464;33;20469;-93
2023/07/26 01:18:17;;;;;;;0.00;0.00;;;;;;;20.59;60.29;98394.66;4296146;33;20167;-94
2023/07/26 01:20:43;;;;;;;0.00;0.00;;;;;;;20.70;60.29;98380.38;4311039;33;20142;-93
2023/07/26 01:23:08;;;;;;;3.40;0.93;;;;;;;20.59;60.29;98368.22;4299081;33;20134;-94
2023/07/26 01:25:35;;;;;;;0.00;0.00;;;;;;;20.28;60.28;98380.78;4310055;33;20072;-94
2023/07/26 01:28:01;;;;;;;0.20;0.20;;;;;;;20.45;60.28;98388.00;4320981;33;20112;-93
2023/07/26 01:30:29;;;;;;;0.00;0.00;;;;;;;20.45;60.28;98393.28;4309553;33;20138;-93
2023/07/26 01:32:54;;;;;;;0.13;0.13;;;;;;;20.42;60.28;98395.38;4308858;33;20830;-93
2023/07/26 01:35:20;;;;;;;0.00;0.00;;;;;;;20.37;60.28;98373.81;4296712;33;20115;-91
2023/07/26 01:37:45;;;;;;;0.00;0.00;;;;;;;20.41;60.29;98352.28;4306778;33;20145;-90
2023/07/26 01:40:11;;;;;;;0.00;0.00;;;;;;;20.50;60.29;98351.38;4309228;33;20166;-91
2023/07/26 01:42:36;;;;;;;0.05;0.05;;;;;;;20.32;60.28;98352.25;4321448;33;20095;-93
2023/07/26 01:45:02;;;;;;;0.25;0.25;;;;;;;20.38;60.28;98362.28;4308781;33;20516;-92
2023/07/26 01:47:28;;;;;;;0.00;0.00;;;;;;;20.27;60.27;98360.63;4307033;33;20100;-92
2023/07/26 01:49:53;;;;;;;4.45;0.52;;;;;;;20.08;60.26;98374.72;4297505;33;20204;-93
2023/07/26 01:52:18;;;;;;;0.00;0.00;;;;;;;20.06;60.26;98389.88;4297230;33;20143;-91
2023/07/26 01:54:44;;;;;;;0.10;0.10;;;;;;;19.97;60.27;98400.47;4296900;33;20369;-91
2023/07/26 01:57:09;;;;;;;0.75;0.65;;;;;;;19.95;60.26;98399.78;4296668;33;20150;-92
2023/07/26 01:59:35;;;;;;;0.10;0.10;;;;;;;19.97;60.27;98411.03;4294755;33;20115;-93
2023/07/26 02:02:00;;;;;;;0.00;0.00;;;;;;;19.92;60.25;98414.09;4297028;33;20118;-93
2023/07/26 02:04:26;;;;;;;0.15;0.15;;;;;;;19.91;60.26;98407.16;4309995;33;20147;-93
2023/07/26 02:06:52;;;;;;;0.10;0.10;;;;;;;19.79;60.25;98419.66;4299211;33;20104;-94
2023/07/26 02:09:17;;;;;;;0.00;0.00;;;;;;;19.80;60.25;98429.22;4297955;33;20181;-93
2023/07/26 02:11:43;;;;;;;0.00;0.00;;;;;;;19.80;60.25;98431.03;4298380;33;20091;-94
2023/07/26 02:14:09;;;;;;;0.28;0.20;;;;;;;19.80;60.25;98423.94;4322847;33;20063;-93
2023/07/26 02:16:34;;;;;;;0.55;0.37;;;;;;;19.78;60.25;98419.78;4300932;33;20162;-93
2023/07/26 02:19:00;;;;;;;0.00;0.00;;;;;;;19.85;60.25;98431.44;4299556;33;20137;-92
2023/07/26 02:21:25;;;;;;;0.32;0.32;;;;;;;19.85;60.26;98437.56;4295527;33;20176;-93
2023/07/26 02:23:51;;;;;;;0.40;0.40;;;;;;;19.85;60.26;98437.56;4309570;33;20441;-92
2023/07/26 02:26:16;;;;;;;0.00;0.00;;;;;;;19.98;60.26;98437.31;4298615;33;20130;-93
2023/07/26 02:28:41;;;;;;;0.00;0.00;;;;;;;19.86;60.26;98444.50;4298129;33;20477;-94
2023/07/26 02:31:07;;;;;;;0.00;0.00;;;;;;;19.98;60.26;98447.88;4309467;33;20354;-93
2023/07/26 02:33:33;;;;;;;0.15;0.15;;;;;;;20.08;60.27;98458.41;4300589;33;21845;-95
2023/07/26 02:35:59;;;;;;;0.15;0.13;;;;;;;20.18;60.27;98460.09;4316938;33;20121;-96
2023/07/26 02:38:25;;;;;;;0.20;0.20;;;;;;;20.35;60.28;98452.41;4297969;33;20381;-94
2023/07/26 02:40:51;;;;;;;0.00;0.00;;;;;;;20.45;60.28;98456.72;4309669;33;20091;-94
2023/07/26 02:43:16;;;;;;;0.00;0.00;;;;;;;20.35;60.28;98455.91;4309881;33;20118;-94
2023/07/26 02:45:42;;;;;;;0.08;0.08;;;;;;;20.42;60.29;98451.72;4297762;33;20144;-93
2023/07/26 02:48:07;;;;;;;7.47;0.55;;;;;;;20.44;60.28;98449.78;4297857;33;20810;-94
2023/07/26 02:50:33;;;;;;;0.08;0.05;;;;;;;20.39;60.28;98448.50;4297618;33;20124;-93
2023/07/26 02:52:59;;;;;;;1.73;0.80;;;;;;;20.48;60.29;98451.16;4302075;33;20124;-93
2023/07/26 02:55:24;;;;;;;0.10;0.10;;;;;;;20.39;60.28;98451.16;4308714;33;20167;-93
2023/07/26 02:57:50;;;;;;;0.20;0.20;;;;;;;20.30;60.28;98438.78;4297270;33;20505;-93
2023/07/26 03:00:16;;;;;;;0.22;0.22;;;;;;;20.26;60.27;98432.94;4304715;33;20164;-93
2023/07/26 03:02:42;;;;;;;0.00;0.00;;;;;;;20.26;60.28;98443.50;4299777;33;20094;-93
2023/07/26 03:05:09;;;;;;;0.00;0.00;;;;;;;20.21;60.27;98443.94;4296392;33;20457;-93
2023/07/26 03:07:34;;;;;;;0.00;0.00;;;;;;;20.21;60.27;98435.19;4320729;33;20462;-93
2023/07/26 03:10:00;;;;;;;0.00;0.00;;;;;;;20.17;60.28;98442.56;4296312;33;23975;-93
2023/07/26 03:12:25;;;;;;;0.00;0.00;;;;;;;20.08;60.26;98439.91;4297241;33;20099;-93
2023/07/26 03:14:51;;;;;;;0.00;0.00;;;;;;;20.22;60.27;98439.50;4296679;33;20123;-92
2023/07/26 03:17:16;;;;;;;0.10;0.10;;;;;;;20.24;60.28;98438.37;4296719;33;20116;-93
2023/07/26 03:19:41;;;;;;;0.00;0.00;;;;;;;20.20;60.27;98446.72;4313716;33;20096;-93
2023/07/26 03:22:07;;;;;;;0.10;0.10;;;;;;;20.30;60.27;98438.78;4305135;33;20108;-93
2023/07/26 03:24:32;;;;;;;0.00;0.00;;;;;;;20.31;60.28;98449.19;4320556;33;20107;-93
2023/07/26 03:26:58;;;;;;;1.00;0.68;;;;;;;20.36;60.28;98447.00;4297444;33;20143;-94
2023/07/26 03:29:23;;;;;;;0.43;0.28;;;;;;;20.20;60.27;98454.66;4326589;32;20135;-95
2023/07/26 03:31:49;;;;;;;0.70;0.22;;;;;;;20.01;60.26;98457.31;4315622;33;20114;-94
2023/07/26 03:34:14;;;;;;;0.03;0.03;;;;;;;19.84;60.25;98472.88;4309333;33;20158;-94
2023/07/26 03:36:40;;;;;;;1.30;0.55;;;;;;;20.06;60.26;98473.56;4297004;33;20465;-91
2023/07/26 03:39:05;;;;;;;0.00;0.00;;;;;;;20.06;60.26;98477.03;4296652;33;20434;-93
2023/07/26 03:41:31;;;;;;;0.00;0.00;;;;;;;20.21;60.27;98474.81;4308443;33;20143;-94
2023/07/26 03:43:56;;;;;;;0.00;0.00;;;;;;;20.39;60.27;98483.69;4296276;33;20130;-93
2023/07/26 03:46:22;;;;;;;0.00;0.00;;;;;;;20.14;60.26;98497.50;4296558;33;20140;-92
2023/07/26 03:48:47;;;;;;;0.28;0.10;;;;;;;20.10;60.27;98506.66;4308609;33;20459;-93
2023/07/26 03:51:12;;;;;;;0.00;0.00;;;;;;;20.36;60.28;98513.06;4295269;33;27089;-93
2023/07/26 03:53:38;;;;;;;0.00;0.00;;;;;;;20.35;60.28;98523.78;4321667;33;20144;-94
2023/07/26 03:56:03;;;;;;;0.22;0.22;;;;;;;20.32;60.28;98529.31;4297159;33;20491;-94
2023/07/26 03:58:29;;;;;;;0.00;0.00;;;;;;;20.09;60.27;98524.31;4297046;33;20166;-93
2023/07/26 04:00:54;;;;;;;0.00;0.00;;;;;;;20.26;60.28;98519.31;4308513;33;20155;-92
2023/07/26 04:03:20;;;;;;;0.00;0.00;;;;;;;20.19;60.27;98519.03;4296365;33;20108;-92
2023/07/26 04:05:45;;;;;;;0.00;0.00;;;;;;;20.30;60.28;98520.69;4298038;33;20410;-95
2023/07/26 04:08:11;;;;;;;0.00;0.00;;;;;;;20.16;60.26;98527.25;4298885;33;20098;-93
2023/07/26 04:10:37;;;;;;;0.10;0.10;;;;;;;20.20;60.27;98518.91;4296888;33;20386;-94
2023/07/26 04:13:02;;;;;;;0.00;0.00;;;;;;;20.07;60.26;98514.84;4308306;33;20139;-93
2023/07/26 04:15:29;;;;;;;0.00;0.00;;;;;;;20.12;60.27;98518.78;4286677;33;20512;-92
2023/07/26 04:17:54;;;;;;;0.00;0.00;;;;;;;20.18;60.28;98533.22;4296342;33;20088;-92
2023/07/26 04:20:20;;;;;;;0.25;0.17;;;;;;;20.10;60.27;98531.25;4295822;33;20467;-93
2023/07/26 04:22:45;;;;;;;0.10;0.10;;;;;;;20.05;60.26;98537.94;4320815;33;20104;-92
2023/07/26 04:25:11;;;;;;;0.00;0.00;;;;;;;19.96;60.26;98536.97;4299353;33;20147;-92
2023/07/26 04:27:36;;;;;;;0.00;0.00;;;;;;;20.00;60.26;98538.34;4308355;33;20353;-93
2023/07/26 04:30:02;;;;;;;0.00;0.00;;;;;;;20.00;60.26;98548.09;4307903;33;20119;-93
2023/07/26 04:32:28;;;;;;;0.00;0.00;;;;;;;19.96;60.26;98533.50;4306896;33;20461;-92
2023/07/26 04:34:53;;;;;;;1.08;0.55;;;;;;;19.88;60.25;98535.03;4307702;33;20167;-93
2023/07/26 04:37:19;;;;;;;0.70;0.10;;;;;;;19.80;60.26;98523.47;4295788;33;20129;-92
2023/07/26 04:39:47;;;;;;;0.00;0.00;;;;;;;19.95;60.26;98526.53;4306242;33;20143;-93
2023/07/26 04:42:13;;;;;;;0.37;0.37;;;;;;;20.10;60.27;98525.16;4295208;33;20131;-93
2023/07/26 04:44:38;;;;;;;0.00;0.00;;;;;;;20.01;60.25;98521.53;4295591;33;20227;-93
2023/07/26 04:47:04;;;;;;;0.08;0.08;;;;;;;20.10;60.27;98527.78;4307846;33;20146;-93
2023/07/26 04:49:29;;;;;;;0.00;0.00;;;;;;;19.98;60.26;98528.91;4319448;33;20092;-92
2023/07/26 04:51:55;;;;;;;0.10;0.10;;;;;;;20.19;60.27;98532.25;4294666;33;20116;-93
2023/07/26 04:54:20;;;;;;;0.00;0.00;;;;;;;20.17;60.28;98529.75;4306507;33;25920;-93
2023/07/26 04:56:45;;;;;;;0.00;0.00;;;;;;;20.16;60.27;98535.19;4294954;33;20166;-93
2023/07/26 04:59:11;;;;;;;0.10;0.10;;;;;;;20.16;60.26;98535.19;4294683;33;20091;-93
2023/07/26 05:01:36;;;;;;;0.37;0.20;;;;;;;20.27;60.27;98532.38;4327956;33;20437;-92
2023/07/26 05:04:02;;;;;;;0.00;0.00;;;;;;;20.44;60.28;98531.72;4293231;33;20175;-93
2023/07/26 05:06:29;;;;;;;0.00;0.00;;;;;;;20.42;60.29;98523.09;4306902;33;20151;-92
2023/07/26 05:08:54;;;;;;;0.00;0.00;;;;;;;20.39;60.28;98526.00;4306972;33;20099;-93
2023/07/26 05:11:20;;;;;;;0.00;0.00;;;;;;;20.60;60.29;98525.03;4294548;33;20393;-92
2023/07/26 05:13:47;;;;;;;0.00;0.00;;;;;;;20.58;60.29;98516.38;4306837;33;20437;-92
2023/07/26 05:16:12;;;;;;;0.00;0.00;;;;;;;20.52;60.29;98521.25;4289338;33;20080;-92
2023/07/26 05:18:38;;;;;;;0.10;0.10;;;;;;;20.61;60.29;98524.88;4313105;33;20114;-92
2023/07/26 05:21:03;;;;;;;0.30;0.30;;;;;;;20.57;60.29;98534.03;4294455;33;20135;-91
2023/07/26 05:23:29;;;;;;;3.10;1.10;;;;;;;20.63;60.29;98554.66;4306853;33;20403;-92
2023/07/26 05:25:55;;;;;;;1.35;0.52;;;;;;;20.56;60.29;98542.12;4294407;33;20155;-93
2023/07/26 05:28:20;;;;;;;0.00;0.00;;;;;;;20.52;60.29;98544.22;4306265;33;20099;-92
2023/07/26 05:30:46;;;;;;;0.10;0.10;;;;;;;20.49;60.29;98544.50;4294713;33;20112;-91
2023/07/26 05:33:11;;;;;;;0.00;0.00;;;;;;;20.34;60.28;98551.16;4294127;33;20126;-92
2023/07/26 05:35:38;;;;;;;0.00;0.00;;;;;;;20.19;60.27;98550.75;4294248;33;20134;-92
2023/07/26 05:38:03;;;;;;;0.35;0.35;;;;;;;20.22;60.27;98550.47;4306407;33;20104;-92
2023/07/26 05:40:29;;;;;;;0.00;0.00;;;;;;;20.16;60.26;98557.16;4306220;33;20143;-92
2023/07/26 05:42:54;;;;;;;0.00;0.00;;;;;;;20.14;60.27;98552.97;4306217;33;20359;-92
2023/07/26 05:45:20;;;;;;;0.00;0.00;;;;;;;20.16;60.26;98553.69;4320418;33;20421;-91
2023/07/26 05:47:45;;;;;;;0.00;0.00;;;;;;;20.39;60.27;98562.16;4296480;33;20111;-90
2023/07/26 05:50:10;;;;;;;0.00;0.00;;;;;;;20.15;60.26;98555.47;4304309;33;20120;-90
2023/07/26 05:52:37;;;;;;;0.10;0.10;;;;;;;20.29;60.28;98564.78;4300933;33;20147;-93
2023/07/26 05:55:02;;;;;;;0.00;0.00;;;;;;;20.32;60.28;98567.16;4308824;33;20159;-91
2023/07/26 05:57:28;;;;;;;0.00;0.00;;;;;;;20.27;60.28;98572.03;4306041;33;20084;-91
2023/07/26 05:59:53;;;;;;;0.00;0.00;;;;;;;20.11;60.27;98574.38;4308333;33;20122;-91
2023/07/26 06:02:18;;;;;;;0.00;0.00;;;;;;;20.13;60.26;98577.72;4308004;33;20267;-91
2023/07/26 06:04:45;;;;;;;0.30;0.30;;;;;;;20.03;60.27;98571.59;4295810;33;20167;-92
2023/07/26 06:07:11;;;;;;;0.00;0.00;;;;;;;19.89;60.26;98581.59;4320390;33;20114;-91
2023/07/26 06:09:37;;;;;;;0.00;0.00;;;;;;;19.86;60.26;98587.12;4308349;33;20167;-92
2023/07/26 06:12:02;;;;;;;0.20;0.20;;;;;;;19.83;60.25;98586.56;4296377;33;20088;-92
2023/07/26 06:14:28;;;;;;;8.48;1.35;;;;;;;19.81;60.25;98589.34;4308357;33;20141;-92
2023/07/26 06:16:54;;;;;;;0.00;0.00;;;;;;;19.73;60.25;98594.47;4305936;33;20091;-91
2023/07/26 06:19:19;;;;;;;0.00;0.00;;;;;;;19.68;60.24;98593.22;4295756;33;20427;-92
2023/07/26 06:21:45;;;;;;;0.00;0.00;;;;;;;19.75;60.25;98605.72;4296313;33;20108;-92
2023/07/26 06:24:10;;;;;;;0.00;0.00;;;;;;;19.82;60.25;98591.00;4308364;33;20407;-91
2023/07/26 06:26:36;;;;;;;1.23;0.43;;;;;;;19.80;60.26;98577.09;4295958;33;20389;-92
2023/07/26 06:29:01;;;;;;;0.30;0.30;;;;;;;19.89;60.26;98589.50;4320071;33;20393;-91
2023/07/26 06:31:26;;;;;;;0.00;0.00;;;;;;;20.07;60.26;98588.81;4296035;33;20482;-92
2023/07/26 06:33:52;;;;;;;0.00;0.00;;;;;;;20.27;60.28;98577.31;4320347;33;20113;-92
2023/07/26 06:36:17;;;;;;;0.10;0.10;;;;;;;20.40;60.29;98596.41;4293944;33;20117;-93
2023/07/26 06:38:43;;;;;;;0.20;0.10;;;;;;;20.49;60.29;98595.56;4305981;33;20124;-93
2023/07/26 06:41:08;;;;;;;0.20;0.20;;;;;;;20.59;60.29;98605.31;4308369;33;20513;-93
2023/07/26 06:43:34;;;;;;;0.00;0.00;;;;;;;20.69;60.30;98600.84;4297207;33;20140;-93
2023/07/26 06:45:59;;;;;;;0.00;0.00;;;;;;;20.62;60.29;98612.97;4297072;33;20139;-93
2023/07/26 06:48:25;;;;;;;0.00;0.00;;;;;;;20.40;60.29;98619.34;4297197;33;20121;-93
2023/07/26 06:50:50;;;;;;;0.00;0.00;;;;;;;20.16;60.27;98619.72;4297265;33;20123;-92
2023/07/26 06:53:16;;;;;;;0.00;0.00;;;;;;;20.07;60.26;98618.72;4297297;33;20107;-93
2023/07/26 06:55:41;;;;;;;0.00;0.00;;;;;;;19.93;60.25;98611.19;4296643;33;20167;-93
2023/07/26 06:58:07;;;;;;;0.62;0.62;;;;;;;20.14;60.27;98622.50;4297538;33;20146;-93
2023/07/26 07:00:32;;;;;;;0.00;0.00;;;;;;;20.13;60.27;98625.28;4297256;33;20147;-93
2023/07/26 07:02:58;;;;;;;0.50;0.50;;;;;;;19.97;60.26;98640.81;4297298;33;20116;-93
2023/07/26 07:05:25;;;;;;;1.20;0.37;;;;;;;20.02;60.27;98638.59;4321430;33;20163;-92
2023/07/26 07:07:51;;;;;;;0.10;0.10;;;;;;;20.00;60.26;98643.19;4321418;33;20111;-93
2023/07/26 07:10:16;;;;;;;0.10;0.10;;;;;;;20.04;60.27;98647.22;4297508;33;20565;-93
2023/07/26 07:12:42;;;;;;;0.00;0.00;;;;;;;19.93;60.25;98646.38;4309468;33;20155;-92
2023/07/26 07:15:08;;;;;;;0.25;0.20;;;;;;;20.16;60.28;98649.63;4309329;33;20117;-92
2023/07/26 07:17:34;;;;;;;0.00;0.00;;;;;;;20.24;60.29;98654.22;4328468;33;20128;-92
2023/07/26 07:20:00;;;;;;;0.00;0.00;;;;;;;19.92;60.26;98651.78;4304326;33;20449;-92
2023/07/26 07:22:25;;;;;;;0.10;0.10;;;;;;;19.92;60.26;98659.72;4300135;33;20103;-92
2023/07/26 07:24:52;;;;;;;0.15;0.15;;;;;;;19.95;60.26;98662.09;4309770;33;20115;-92
2023/07/26 07:27:18;;;;;;;0.00;0.00;;;;;;;19.67;60.25;98666.28;4309255;33;20128;-93
2023/07/26 07:29:44;;;;;;;0.10;0.10;;;;;;;19.66;60.25;98663.78;4309586;33;20107;-93
2023/07/26 07:32:09;;;;;;;0.15;0.15;;;;;;;19.57;60.24;98674.16;4296973;33;20116;-93
2023/07/26 07:34:35;;;;;;;0.00;0.00;;;;;;;19.65;60.25;98670.03;4291913;33;113388;-93
2023/07/26 07:37:01;;;;;;;0.00;0.00;;;;;;;19.68;60.24;98665.34;4309172;33;20423;-93
2023/07/26 07:39:26;;;;;;;0.10;0.10;;;;;;;19.87;60.26;98669.81;4309133;33;20168;-92
2023/07/26 07:41:51;;;;;;;0.00;0.00;;;;;;;19.94;60.27;98678.91;4297033;33;20104;-92
2023/07/26 07:44:17;;;;;;;0.00;0.00;;;;;;;19.93;60.25;98679.88;4296868;33;20151;-92
2023/07/26 07:46:44;;;;;;;0.10;0.10;;;;;;;20.04;60.27;98677.09;4297027;33;20187;-92
2023/07/26 07:49:10;;;;;;;0.00;0.00;;;;;;;20.01;60.27;98674.75;4309630;33;20492;-94
2023/07/26 07:51:35;;;;;;;0.00;0.00;;;;;;;19.93;60.25;98688.63;4308802;33;20095;-93
2023/07/26 07:54:01;;;;;;;0.00;0.00;;;;;;;19.74;60.25;98695.63;4296902;33;20184;-93
2023/07/26 07:56:26;;;;;;;0.17;0.17;;;;;;;19.76;60.25;98697.19;4296900;33;20163;-93
2023/07/26 07:58:51;;;;;;;0.00;0.00;;;;;;;19.77;60.25;98690.91;4308859;33;20115;-92
2023/07/26 08:01:17;;;;;;;0.55;0.55;;;;;;;19.80;60.26;98684.53;4296889;33;20149;-93
2023/07/26 08:03:42;;;;;;;0.00;0.00;;;;;;;19.86;60.26;98691.91;4297145;33;20493;-92
2023/07/26 08:06:09;;;;;;;0.62;0.62;;;;;;;19.73;60.25;98702.72;4296684;33;20163;-93
2023/07/26 08:08:34;;;;;;;0.00;0.00;;;;;;;19.73;60.25;98700.09;4309040;33;20186;-92
2023/07/26 08:11:02;;;;;;;0.03;0.03;;;;;;;19.80;60.26;98692.47;4308661;33;20473;-93
2023/07/26 08:13:27;;;;;;;0.30;0.30;;;;;;;19.84;60.25;98693.88;4321178;33;20495;-93
2023/07/26 08:15:56;;;;;;;0.00;0.00;;;;;;;19.94;60.26;98694.75;4308911;33;20156;-92
2023/07/26 08:18:21;;;;;;;0.00;0.00;;;;;;;19.91;60.26;98700.31;4297142;33;20141;-92
2023/07/26 08:20:47;;;;;;;0.10;0.10;;;;;;;19.99;60.26;98694.34;4296587;33;20416;-92
2023/07/26 08:23:13;;;;;;;0.00;0.00;;;;;;;19.96;60.26;98699.91;4296679;33;20149;-91
2023/07/26 08:25:38;;;;;;;0.13;0.13;;;;;;;20.04;60.27;98700.06;4296856;33;20183;-92
2023/07/26 08:28:03;;;;;;;0.00;0.00;;;;;;;20.02;60.25;98696.72;4308864;33;20108;-93
2023/07/26 08:30:29;;;;;;;0.30;0.30;;;;;;;19.99;60.26;98700.47;4296480;33;20182;-93
2023/07/26 08:32:54;;;;;;;0.00;0.00;;;;;;;20.05;60.27;98710.47;4308794;33;20099;-92
2023/07/26 08:35:20;;;;;;;0.40;0.40;;;;;;;20.01;60.27;98717.00;4296204;33;20111;-92
2023/07/26 08:37:45;;;;;;;0.00;0.00;;;;;;;19.96;60.26;98727.16;4296522;33;20175;-92
2023/07/26 08:40:11;;;;;;;0.00;0.00;;;;;;;19.88;60.26;98725.19;4308759;33;20099;-93
2023/07/26 08:42:37;;;;;;;0.03;0.03;;;;;;;19.96;60.26;98718.38;4320856;33;20115;-92
2023/07/26 08:45:03;;;;;;;0.03;0.03;;;;;;;20.08;60.26;98722.59;4309034;33;20142;-92
2023/07/26 08:47:28;;;;;;;0.22;0.22;;;;;;;20.10;60.27;98729.41;4306208;33;20080;-92
2023/07/26 08:49:54;;;;;;;0.43;0.43;;;;;;;20.19;60.27;98731.25;4298600;33;20088;-92
2023/07/26 08:52:19;;;;;;;1.35;0.43;;;;;;;20.23;60.27;98743.22;4296027;33;20127;-92
2023/07/26 08:54:48;;;;;;;0.00;0.00;;;;;;;20.09;60.27;98730.38;4308397;33;20156;-91
2023/07/26 08:57:14;;;;;;;0.43;0.43;;;;;;;20.13;60.27;98747.66;4320272;33;20141;-92
2023/07/26 08:59:40;;;;;;;0.10;0.10;;;;;;;20.25;60.28;98748.38;4320402;33;20095;-92
2023/07/26 09:02:09;;;;;;;0.05;0.00;;;;;;;19.89;60.26;98755.06;4308107;33;20113;-92
2023/07/26 09:04:34;;;;;;;30.62;0.93;;;;;;;19.87;60.26;98756.97;4320320;33;20490;-92
2023/07/26 09:07:03;;;;;;;0.10;0.10;;;;;;;19.82;60.25;98769.75;4295842;33;20112;-92
2023/07/26 09:09:31;;;;;;;0.00;0.00;;;;;;;20.01;60.26;98763.72;4320348;33;20495;-92
2023/07/26 09:11:56;;;;;;;0.00;0.00;;;;;;;20.05;60.27;98763.31;4320350;33;20103;-93
2023/07/26 09:14:26;;;;;;;0.00;0.00;;;;;;;20.11;60.28;98770.75;4296000;33;20179;-93
2023/07/26 09:16:55;;;;;;;0.00;0.00;;;;;;;20.26;60.27;98771.19;4319989;33;20112;-91
2023/07/26 09:19:20;;;;;;;0.00;0.00;;;;;;;20.37;60.28;98770.25;4321037;33;20213;-93
2023/07/26 09:21:45;;;;;;;0.00;0.00;;;;;;;20.33;60.28;98764.38;4297895;33;20080;-93
2023/07/26 09:24:11;;;;;;;0.00;0.00;;;;;;;20.56;60.30;98757.09;4298047;33;20115;-92
2023/07/26 09:26:40;;;;;;;0.00;0.00;;;;;;;20.75;60.30;98758.94;4297837;33;20103;-93
2023/07/26 09:29:18;;;;;;;0.00;0.00;;;;;;;20.83;60.30;98746.72;4309898;33;20095;-92
2023/07/26 09:31:43;;;;;;;0.10;0.10;;;;;;;20.95;60.32;98750.06;4321872;33;20096;-93
2023/07/26 09:34:14;;;;;;;0.00;0.00;;;;;;;21.27;60.33;98738.38;4297853;33;20409;-93
2023/07/26 09:36:44;;;;;;;0.00;0.00;;;;;;;21.42;60.34;98743.09;4310408;33;20133;-93
2023/07/26 09:39:09;;;;;;;0.00;0.00;;;;;;;21.34;60.33;98756.22;4310092;33;20146;-92
2023/07/26 09:41:35;;;;;;;0.00;0.00;;;;;;;21.38;60.33;98746.16;4309950;33;20100;-93
2023/07/26 09:44:00;;;;;;;0.00;0.00;;;;;;;21.44;60.34;98738.47;4297685;33;20159;-92
2023/07/26 09:46:26;;;;;;;0.32;0.32;;;;;;;21.62;60.34;98728.00;4297734;33;20162;-92
2023/07/26 09:49:02;;;;;;;0.00;0.00;;;;;;;21.69;60.35;98730.91;4297762;33;20402;-92
2023/07/26 09:51:29;;;;;;;0.22;0.15;;;;;;;21.76;60.35;98731.97;4321950;33;20092;-92
2023/07/26 09:53:55;;;;;;;0.00;0.00;;;;;;;21.96;60.37;98746.00;4321935;33;20116;-92
2023/07/26 09:56:21;;;;;;;0.00;0.00;;;;;;;21.83;60.36;98749.00;4297804;33;20465;-91
2023/07/26 09:58:46;;;;;;;0.00;0.00;;;;;;;21.76;60.35;98750.53;4321732;33;20091;-93
2023/07/26 10:01:12;;;;;;;0.00;0.00;;;;;;;21.92;60.36;98760.53;4309659;33;20114;-92
2023/07/26 10:03:38;;;;;;;0.52;0.47;;;;;;;22.17;60.37;98753.75;4309858;33;20541;-93
2023/07/26 10:06:04;;;;;;;0.00;0.00;;;;;;;22.38;60.38;98749.03;4309645;33;20107;-92
2023/07/26 10:08:29;;;;;;;0.00;0.00;;;;;;;22.41;60.38;98750.56;4309647;33;20123;-92
2023/07/26 10:10:55;;;;;;;0.00;0.00;;;;;;;22.27;60.39;98754.56;4297455;33;20155;-91
2023/07/26 10:13:21;;;;;;;0.00;0.00;;;;;;;21.95;60.36;98755.75;4320146;33;20099;-89
2023/07/26 10:15:47;;;;;;;0.00;0.00;;;;;;;21.60;60.34;98756.44;4311486;33;20117;-92
2023/07/26 10:18:14;;;;;;;0.00;0.00;;;;;;;21.52;60.34;98758.09;4309657;33;20091;-91
2023/07/26 10:20:40;;;;;;;0.00;0.00;;;;;;;21.40;60.34;98775.97;4309249;33;20111;-92
2023/07/26 10:23:05;;;;;;;0.70;0.35;;;;;;;21.41;60.34;98765.25;4309280;33;20099;-93
2023/07/26 10:25:32;;;;;;;0.00;0.00;;;;;;;21.18;60.33;98773.59;4297329;33;20232;-92
2023/07/26 10:27:57;;;;;;;2.97;0.60;;;;;;;21.28;60.33;98761.22;4321505;33;20103;-91
2023/07/26 10:30:23;;;;;;;0.10;0.10;;;;;;;21.62;60.34;98766.87;4295963;33;23605;-91
2023/07/26 10:32:48;;;;;;;0.13;0.13;;;;;;;21.51;60.35;98770.50;4297351;33;20155;-92
2023/07/26 10:35:32;;;;;;;0.32;0.30;;;;;;;21.42;60.34;98771.38;4297382;33;20159;-91
2023/07/26 10:37:58;;;;;;;0.25;0.25;;;;;;;21.38;60.33;98757.59;4321552;33;20949;-92
2023/07/26 10:40:31;;;;;;;0.00;0.00;;;;;;;21.54;60.34;98766.78;4297237;33;20116;-93
2023/07/26 10:42:57;;;;;;;0.10;0.10;;;;;;;21.66;60.35;98774.41;4321619;33;20130;-92
2023/07/26 10:45:37;;;;;;;0.00;0.00;;;;;;;21.64;60.36;98770.22;4309406;33;20139;-92
2023/07/26 10:48:02;;;;;;;0.05;0.05;;;;;;;21.61;60.35;98760.75;4321319;33;20091;-91
2023/07/26 10:50:28;;;;;;;0.00;0.00;;;;;;;21.67;60.35;98778.72;4321558;33;20422;-93
2023/07/26 10:52:53;;;;;;;0.00;0.00;;;;;;;21.42;60.34;98784.62;4321519;33;20458;-92
2023/07/26 10:55:27;;;;;;;0.00;0.00;;;;;;;21.42;60.34;98766.91;4309092;33;20149;-93
2023/07/26 10:57:53;;;;;;;0.10;0.10;;;;;;;21.39;60.34;98776.97;4309254;33;20108;-92
2023/07/26 11:00:23;;;;;;;0.00;0.00;;;;;;;21.20;60.33;98767.19;4309294;33;20092;-91
2023/07/26 11:02:58;;;;;;;0.40;0.30;;;;;;;21.05;60.32;98779.16;4298039;33;20112;-91
2023/07/26 11:05:24;;;;;;;0.40;0.40;;;;;;;21.41;60.34;98789.06;4310195;33;20173;-92
2023/07/26 11:08:02;;;;;;;0.00;0.00;;;;;;;21.54;60.34;98772.91;4296803;33;20390;-92
2023/07/26 11:10:32;;;;;;;0.00;0.00;;;;;;;21.76;60.36;98769.06;4309244;33;20469;-93
2023/07/26 11:13:13;;;;;;;0.00;0.00;;;;;;;21.59;60.35;98778.59;4309523;33;20129;-92
2023/07/26 11:15:41;;;;;;;0.00;0.00;;;;;;;21.69;60.35;98776.75;4309536;33;20112;-92
2023/07/26 11:18:06;;;;;;;0.00;0.00;;;;;;;21.88;60.37;98775.03;4309432;33;20480;-92
2023/07/26 11:20:31;;;;;;;0.00;0.00;;;;;;;21.99;60.37;98766.91;4297015;33;20131;-92
2023/07/26 11:22:57;;;;;;;0.00;0.00;;;;;;;21.79;60.35;98762.66;4297185;33;20166;-93
2023/07/26 11:25:22;;;;;;;0.00;0.00;;;;;;;22.04;60.37;98775.31;4297331;33;20134;-92
2023/07/26 11:27:48;;;;;;;0.50;0.03;;;;;;;22.32;60.38;98782.28;4297212;33;20104;-92
2023/07/26 11:30:15;;;;;;;0.00;0.00;;;;;;;22.24;60.38;98771.59;4296951;33;20441;-92